Time;durP1;ratioP1;P1;durP2;ratioP2;P2;SDS_P1;SDS_P2;PMS_P1;PMS_P2;Temp;Humidity;BMP_temperature;BMP_pressure;BME280_temperature;BME280_humidity;BME280_pressure;Samples;Min_cycle;Max_cycle;Signal;HPM_P1;HPM_P2
2022/07/18 00:01:45;;;;;;;4.25;1.30;;;20.40;71.70;;;;;;5093048;28;20028;-70
2022/07/18 00:06:48;;;;;;;3.88;1.35;;;20.30;71.90;;;;;;5029426;28;20061;-72
2022/07/18 00:09:14;;;;;;;4.53;1.42;;;20.30;71.70;;;;;;5042398;28;20412;-72
2022/07/18 00:11:40;;;;;;;2.33;1.20;;;20.30;71.90;;;;;;5052195;28;20029;-72
2022/07/18 00:14:06;;;;;;;2.47;1.10;;;20.30;72.10;;;;;;5052252;28;20029;-72
2022/07/18 00:16:32;;;;;;;4.18;1.60;;;20.20;72.30;;;;;;5051996;28;20033;-71
2022/07/18 00:18:58;;;;;;;4.78;1.40;;;20.20;72.40;;;;;;5051959;28;20075;-72
2022/07/18 00:21:25;;;;;;;3.97;1.35;;;20.20;72.30;;;;;;5052009;28;20537;-72
2022/07/18 00:23:50;;;;;;;2.65;1.30;;;20.10;72.40;;;;;;5034108;28;20033;-72
2022/07/18 00:26:17;;;;;;;4.55;1.30;;;20.10;72.50;;;;;;5051796;28;20558;-72
2022/07/18 00:28:43;;;;;;;3.83;1.33;;;20.10;72.50;;;;;;5051594;28;20040;-72
2022/07/18 00:31:09;;;;;;;4.18;1.80;;;20.00;72.50;;;;;;5052248;28;20027;-72
2022/07/18 00:33:35;;;;;;;3.58;1.80;;;20.00;72.60;;;;;;5051794;28;20060;-72
2022/07/18 00:36:01;;;;;;;4.43;1.77;;;20.10;72.80;;;;;;5033896;28;20033;-72
2022/07/18 00:38:27;;;;;;;3.53;1.48;;;20.10;72.80;;;;;;5051687;28;20037;-72
2022/07/18 00:40:53;;;;;;;5.97;1.63;;;20.10;72.80;;;;;;5033693;28;20040;-72
2022/07/18 00:43:19;;;;;;;5.15;1.85;;;20.00;72.90;;;;;;5051724;28;20025;-72
2022/07/18 00:45:48;;;;;;;3.35;1.40;;;20.00;73.20;;;;;;5051620;28;20037;-72
2022/07/18 00:48:15;;;;;;;4.63;1.42;;;20.00;73.20;;;;;;5033477;28;20034;-72
2022/07/18 00:50:43;;;;;;;5.65;1.55;;;19.90;73.20;;;;;;5051675;28;20036;-71
2022/07/18 00:53:12;;;;;;;4.25;1.40;;;19.90;73.20;;;;;;5051548;28;20040;-72
2022/07/18 00:55:39;;;;;;;;;;;19.90;72.80;;;;;;5033856;28;20083;-72
2022/07/18 00:58:05;;;;;;;3.55;1.45;;;19.90;72.80;;;;;;5051336;28;19999;-72
2022/07/18 01:03:15;;;;;;;4.15;1.40;;;19.80;73.00;;;;;;5051367;28;20033;-72
2022/07/18 01:05:41;;;;;;;2.97;1.33;;;19.80;73.10;;;;;;5051148;28;20123;-73
2022/07/18 01:08:07;;;;;;;3.03;1.40;;;19.80;72.90;;;;;;5051187;28;20112;-72
2022/07/18 01:10:33;;;;;;;4.40;1.55;;;19.70;72.90;;;;;;5050974;28;20033;-72
2022/07/18 01:13:00;;;;;;;7.38;1.45;;;19.70;73.30;;;;;;5051137;28;20029;-72
2022/07/18 01:15:26;;;;;;;3.25;1.40;;;19.60;73.40;;;;;;5051043;28;20029;-72
2022/07/18 01:17:52;;;;;;;6.45;1.35;;;19.60;73.70;;;;;;5050914;28;20021;-72
2022/07/18 01:20:18;;;;;;;3.25;1.30;;;19.50;73.90;;;;;;5050380;28;20017;-71
2022/07/18 01:22:44;;;;;;;5.22;1.40;;;19.50;74.20;;;;;;5051006;28;20028;-73
2022/07/18 01:25:11;;;;;;;4.80;1.33;;;19.50;74.40;;;;;;5051014;28;20037;-72
2022/07/18 01:27:37;;;;;;;6.47;1.58;;;19.50;74.50;;;;;;5050933;28;20056;-72
2022/07/18 01:30:05;;;;;;;4.97;1.75;;;19.50;74.70;;;;;;5050649;28;20098;-72
2022/07/18 01:32:31;;;;;;;5.55;1.95;;;19.40;75.20;;;;;;5050745;28;20061;-72
2022/07/18 01:34:57;;;;;;;4.22;1.70;;;19.30;75.70;;;;;;5033035;28;20049;-73
2022/07/18 01:37:23;;;;;;;3.60;1.70;;;19.30;76.00;;;;;;5032845;28;20029;-72
2022/07/18 01:39:49;;;;;;;4.45;1.65;;;19.30;76.40;;;;;;5050508;28;20021;-72
2022/07/18 01:42:15;;;;;;;8.57;1.52;;;19.20;76.90;;;;;;5050782;28;20035;-72
2022/07/18 01:44:42;;;;;;;5.50;1.60;;;19.20;77.50;;;;;;5050778;28;20060;-72
2022/07/18 01:47:10;;;;;;;5.72;2.00;;;19.20;77.90;;;;;;5032680;28;20037;-72
2022/07/18 01:49:36;;;;;;;3.80;1.27;;;19.20;78.20;;;;;;5050463;28;20033;-72
2022/07/18 01:52:04;;;;;;;3.05;1.20;;;19.10;78.20;;;;;;5032786;28;20036;-71
2022/07/18 01:54:32;;;;;;;5.15;1.20;;;19.00;78.20;;;;;;5050671;28;20029;-73
2022/07/18 01:57:00;;;;;;;5.03;1.95;;;18.90;78.10;;;;;;5051081;28;20022;-72
2022/07/18 01:59:26;;;;;;;4.53;1.50;;;18.90;78.30;;;;;;5050492;28;20027;-72
2022/07/18 02:01:52;;;;;;;2.78;1.13;;;18.90;78.50;;;;;;5050450;28;20084;-72
2022/07/18 02:04:18;;;;;;;6.57;1.50;;;18.80;78.70;;;;;;5050600;28;20536;-72
2022/07/18 02:06:44;;;;;;;4.90;1.08;;;18.80;79.10;;;;;;5050379;28;20033;-71
2022/07/18 02:09:11;;;;;;;2.83;1.10;;;18.80;79.60;;;;;;5050301;28;20497;-72
2022/07/18 02:11:37;;;;;;;3.50;1.33;;;18.70;79.90;;;;;;5050355;28;20075;-72
2022/07/18 02:14:05;;;;;;;3.05;1.25;;;18.70;80.10;;;;;;5050566;28;20028;-71
2022/07/18 02:16:31;;;;;;;4.28;1.50;;;18.60;80.20;;;;;;5050639;28;20039;-72
2022/07/18 02:18:58;;;;;;;4.55;1.83;;;18.60;80.60;;;;;;5032439;28;20171;-71
2022/07/18 02:21:24;;;;;;;3.90;1.27;;;18.60;80.60;;;;;;5050404;28;20587;-71
2022/07/18 02:23:50;;;;;;;3.03;1.30;;;18.50;80.60;;;;;;5050343;28;20037;-71
2022/07/18 02:26:17;;;;;;;3.58;1.30;;;18.50;80.80;;;;;;5050407;28;20037;-72
2022/07/18 02:28:43;;;;;;;3.28;1.30;;;18.50;81.00;;;;;;5050375;28;20044;-72
2022/07/18 02:31:09;;;;;;;5.68;1.52;;;18.50;81.10;;;;;;5050610;28;20035;-72
2022/07/18 02:33:35;;;;;;;5.40;1.48;;;18.40;81.30;;;;;;5052171;28;20507;-72
2022/07/18 02:36:01;;;;;;;4.03;1.20;;;18.40;81.50;;;;;;5054430;28;20079;-72
2022/07/18 02:38:27;;;;;;;3.45;1.17;;;18.30;81.60;;;;;;5053988;28;20032;-72
2022/07/18 02:40:53;;;;;;;3.60;1.30;;;18.40;81.70;;;;;;5053887;28;20029;-72
2022/07/18 02:43:19;;;;;;;2.63;1.30;;;18.30;81.80;;;;;;5054055;28;20035;-72
2022/07/18 02:45:45;;;;;;;3.65;1.83;;;18.30;82.00;;;;;;5053770;28;20393;-72
2022/07/18 02:48:11;;;;;;;4.35;1.42;;;18.30;82.00;;;;;;5036002;28;20033;-72
2022/07/18 02:50:36;;;;;;;3.47;1.27;;;18.30;82.10;;;;;;5053686;28;20036;-72
2022/07/18 02:53:02;;;;;;;5.05;1.45;;;18.30;82.20;;;;;;5053782;28;20040;-72
2022/07/18 02:55:28;;;;;;;5.22;1.58;;;18.30;82.20;;;;;;5053739;28;20052;-72
2022/07/18 02:57:54;;;;;;;3.00;1.27;;;18.20;82.40;;;;;;5053792;28;20059;-72
2022/07/18 03:00:20;;;;;;;2.97;1.70;;;18.10;82.60;;;;;;5053390;28;20025;-72
2022/07/18 03:02:46;;;;;;;6.20;1.85;;;18.10;82.90;;;;;;5053644;28;20037;-72
2022/07/18 03:05:12;;;;;;;4.03;1.50;;;18.10;83.10;;;;;;5053494;28;20082;-72
2022/07/18 03:07:39;;;;;;;3.67;1.50;;;18.10;83.20;;;;;;5035677;28;20064;-73
2022/07/18 03:10:06;;;;;;;3.72;1.58;;;18.10;83.20;;;;;;5053167;28;20029;-72
2022/07/18 03:12:32;;;;;;;5.45;1.90;;;18.00;83.30;;;;;;5035532;28;20382;-72
2022/07/18 03:14:59;;;;;;;4.57;2.00;;;18.00;83.60;;;;;;5053524;28;20079;-72
2022/07/18 03:17:25;;;;;;;4.00;1.88;;;17.90;83.70;;;;;;5053267;28;20104;-72
2022/07/18 03:19:51;;;;;;;3.95;1.60;;;18.00;83.80;;;;;;5053054;28;20159;-72
2022/07/18 03:22:17;;;;;;;6.70;1.80;;;17.90;83.80;;;;;;5053182;28;20492;-72
2022/07/18 03:24:43;;;;;;;4.60;1.80;;;17.90;83.90;;;;;;5053080;28;20037;-72
2022/07/18 03:27:09;;;;;;;3.85;1.60;;;17.90;83.90;;;;;;5035214;28;20036;-72
2022/07/18 03:29:35;;;;;;;4.78;1.80;;;17.90;83.90;;;;;;5052718;28;20083;-72
2022/07/18 03:32:01;;;;;;;4.53;1.73;;;17.80;83.60;;;;;;5052879;28;20033;-72
2022/07/18 03:34:27;;;;;;;5.07;2.33;;;17.80;83.90;;;;;;5053015;28;20037;-72
2022/07/18 03:36:52;;;;;;;5.15;1.60;;;17.90;83.90;;;;;;5052834;28;20031;-72
2022/07/18 03:39:18;;;;;;;5.60;1.58;;;17.80;83.70;;;;;;5052600;28;20409;-72
2022/07/18 03:41:44;;;;;;;4.63;1.38;;;17.80;83.80;;;;;;5052941;28;20067;-72
2022/07/18 03:44:10;;;;;;;3.72;1.65;;;17.80;83.80;;;;;;5052254;28;20520;-72
2022/07/18 03:46:37;;;;;;;4.53;1.52;;;17.80;84.00;;;;;;5052888;28;20123;-72
2022/07/18 03:49:03;;;;;;;4.00;1.60;;;17.70;84.20;;;;;;5052497;28;20029;-72
2022/07/18 03:51:29;;;;;;;6.93;2.03;;;17.70;84.60;;;;;;5052685;28;20389;-72
2022/07/18 03:53:55;;;;;;;4.22;1.60;;;17.60;84.70;;;;;;5052798;28;20033;-72
2022/07/18 03:56:21;;;;;;;3.85;1.80;;;17.70;85.00;;;;;;5052987;28;20090;-72
2022/07/18 03:58:47;;;;;;;7.15;2.00;;;17.70;85.00;;;;;;5052779;28;20024;-72
2022/07/18 04:01:12;;;;;;;3.95;1.63;;;17.70;85.00;;;;;;5052822;28;20025;-72
2022/07/18 04:03:38;;;;;;;4.85;1.77;;;17.70;84.90;;;;;;5053160;28;20124;-72
2022/07/18 04:06:04;;;;;;;4.30;1.80;;;17.70;84.80;;;;;;5052283;28;20062;-72
2022/07/18 04:08:30;;;;;;;4.57;1.60;;;17.70;84.80;;;;;;5052170;28;20492;-72
2022/07/18 04:10:56;;;;;;;5.18;1.85;;;17.80;84.90;;;;;;5034415;28;20075;-72
2022/07/18 04:13:22;;;;;;;4.50;1.60;;;17.80;84.80;;;;;;5052404;28;20116;-72
2022/07/18 04:15:48;;;;;;;5.07;1.63;;;17.80;84.90;;;;;;5052154;28;20482;-72
2022/07/18 04:18:14;;;;;;;3.75;1.50;;;17.80;84.80;;;;;;5052119;28;20146;-71
2022/07/18 04:20:40;;;;;;;3.47;1.55;;;17.80;84.90;;;;;;5033982;28;20090;-72
2022/07/18 04:23:09;;;;;;;5.40;1.70;;;17.80;84.90;;;;;;5051996;28;20120;-72
2022/07/18 04:25:37;;;;;;;4.90;1.77;;;17.80;85.00;;;;;;5034146;28;20477;-72
2022/07/18 04:28:04;;;;;;;4.50;1.90;;;17.80;85.00;;;;;;5051762;28;20033;-72
2022/07/18 04:30:32;;;;;;;4.82;2.00;;;17.80;85.00;;;;;;5051654;28;20036;-72
2022/07/18 04:33:02;;;;;;;5.93;1.65;;;17.80;84.90;;;;;;5051805;28;20036;-72
2022/07/18 04:35:27;;;;;;;6.80;1.98;;;17.80;85.10;;;;;;5051804;28;20049;-72
2022/07/18 04:37:53;;;;;;;7.80;1.83;;;17.80;85.10;;;;;;5051741;28;20366;-72
2022/07/18 04:40:19;;;;;;;5.57;1.60;;;17.90;85.30;;;;;;5051517;28;20112;-72
2022/07/18 04:42:46;;;;;;;5.35;1.80;;;17.90;85.40;;;;;;5051646;28;20052;-72
2022/07/18 04:45:12;;;;;;;4.50;1.58;;;17.90;85.30;;;;;;5051627;28;20021;-72
2022/07/18 04:47:38;;;;;;;3.60;1.65;;;17.90;85.30;;;;;;5051504;28;20033;-72
2022/07/18 04:50:07;;;;;;;4.38;1.63;;;17.90;85.10;;;;;;5051235;28;20039;-72
2022/07/18 04:52:38;;;;;;;6.63;1.88;;;17.90;84.90;;;;;;5051519;28;20025;-73
2022/07/18 04:55:05;;;;;;;4.72;1.60;;;18.00;84.80;;;;;;5050924;28;20043;-72
2022/07/18 04:57:31;;;;;;;5.13;1.33;;;18.00;85.10;;;;;;5051072;28;20032;-72
2022/07/18 04:59:57;;;;;;;9.25;1.90;;;18.00;85.30;;;;;;5051194;28;20029;-72
2022/07/18 05:02:23;;;;;;;3.10;1.50;;;18.00;85.60;;;;;;5051608;28;20115;-72
2022/07/18 05:04:49;;;;;;;4.82;2.05;;;18.10;85.70;;;;;;5051073;28;20037;-72
2022/07/18 05:07:15;;;;;;;7.32;3.42;;;18.10;85.70;;;;;;5033237;28;20032;-72
2022/07/18 05:09:40;;;;;;;6.13;2.78;;;18.20;86.00;;;;;;5050995;28;20048;-72
2022/07/18 05:12:06;;;;;;;7.40;2.80;;;18.20;86.20;;;;;;5051086;28;20493;-72
2022/07/18 05:14:32;;;;;;;4.05;2.13;;;18.20;86.20;;;;;;5051193;28;20029;-72
2022/07/18 05:16:58;;;;;;;5.00;1.80;;;18.30;86.20;;;;;;5051009;28;20029;-73
2022/07/18 05:19:24;;;;;;;8.20;2.42;;;18.40;86.20;;;;;;5050875;28;20037;-73
2022/07/18 05:21:50;;;;;;;7.30;2.72;;;18.40;86.40;;;;;;5051012;28;20025;-72
2022/07/18 05:24:16;;;;;;;8.68;2.38;;;18.50;86.20;;;;;;5051010;28;20033;-72
2022/07/18 05:26:42;;;;;;;6.68;2.38;;;18.50;85.80;;;;;;5050939;28;20079;-72
2022/07/18 05:29:08;;;;;;;4.03;2.08;;;18.60;85.40;;;;;;5050571;28;20482;-72
2022/07/18 05:31:34;;;;;;;7.13;2.40;;;18.60;85.30;;;;;;5050786;28;20027;-72
2022/07/18 05:34:00;;;;;;;5.20;2.05;;;18.70;85.00;;;;;;5050736;28;20107;-72
2022/07/18 05:36:26;;;;;;;5.00;2.22;;;18.80;84.60;;;;;;5050815;28;20605;-72
2022/07/18 05:38:52;;;;;;;7.47;2.15;;;18.90;84.30;;;;;;5032800;28;20280;-72
2022/07/18 05:41:18;;;;;;;6.22;2.50;;;18.90;83.80;;;;;;5050755;28;20037;-72
2022/07/18 05:43:44;;;;;;;6.20;2.47;;;19.00;83.50;;;;;;5050793;28;20029;-72
2022/07/18 05:46:10;;;;;;;5.15;2.17;;;19.00;83.40;;;;;;5050698;28;20033;-73
2022/07/18 05:48:36;;;;;;;7.65;2.33;;;19.20;82.40;;;;;;5050459;28;20029;-72
2022/07/18 05:51:02;;;;;;;4.10;1.88;;;19.20;81.40;;;;;;5050602;28;20036;-73
2022/07/18 05:53:27;;;;;;;11.75;2.15;;;19.30;80.60;;;;;;5032666;28;20048;-72
2022/07/18 05:55:53;;;;;;;9.48;2.38;;;19.40;80.00;;;;;;5050728;28;20033;-73
2022/07/18 05:58:19;;;;;;;8.77;2.42;;;19.50;79.60;;;;;;5050631;28;20033;-72
2022/07/18 06:00:45;;;;;;;7.78;2.20;;;19.50;79.40;;;;;;5050455;28;20429;-72
2022/07/18 06:03:11;;;;;;;6.25;2.50;;;19.60;78.90;;;;;;5051085;28;20523;-72
2022/07/18 06:05:37;;;;;;;10.63;2.92;;;19.70;78.60;;;;;;5072696;23;20411;-70
2022/07/18 06:08:03;;;;;;;8.48;2.40;;;19.80;78.60;;;;;;5093813;28;20035;-71
2022/07/18 06:10:29;;;;;;;8.60;2.30;;;19.80;78.40;;;;;;5094814;28;20030;-71
2022/07/18 06:12:55;;;;;;;5.78;2.22;;;19.90;78.20;;;;;;5094875;28;20048;-72
2022/07/18 06:15:21;;;;;;;9.43;2.20;;;19.90;78.00;;;;;;5095102;28;20103;-72
2022/07/18 06:17:48;;;;;;;6.68;1.90;;;20.00;77.80;;;;;;5093608;28;20108;-71
2022/07/18 06:20:14;;;;;;;4.65;2.08;;;20.00;77.40;;;;;;5094813;28;20031;-72
2022/07/18 06:22:40;;;;;;;9.38;1.95;;;20.10;77.00;;;;;;5093432;28;20116;-72
2022/07/18 06:25:07;;;;;;;4.45;1.55;;;20.20;76.70;;;;;;5094898;28;20059;-71
2022/07/18 06:27:33;;;;;;;6.20;1.70;;;20.20;76.30;;;;;;5094756;28;20036;-71
2022/07/18 06:29:59;;;;;;;4.03;1.88;;;20.30;76.10;;;;;;5094336;28;20035;-72
2022/07/18 06:32:25;;;;;;;5.13;1.80;;;20.40;76.00;;;;;;5094485;28;20123;-71
2022/07/18 06:34:51;;;;;;;5.20;1.77;;;20.40;75.80;;;;;;5094526;28;20020;-72
2022/07/18 06:37:17;;;;;;;8.10;2.05;;;20.40;75.40;;;;;;5094419;28;20213;-72
2022/07/18 06:39:43;;;;;;;6.40;1.75;;;20.50;75.30;;;;;;5094164;28;20120;-70
2022/07/18 06:42:08;;;;;;;3.22;1.40;;;20.60;75.20;;;;;;5094532;28;20040;-70
2022/07/18 06:44:34;;;;;;;5.78;1.95;;;20.60;74.80;;;;;;5094544;28;20551;-71
2022/07/18 06:47:00;;;;;;;3.35;1.40;;;20.60;74.60;;;;;;5094245;28;20111;-71
2022/07/18 06:49:26;;;;;;;3.00;1.50;;;20.70;74.50;;;;;;5094260;28;20032;-70
2022/07/18 06:51:52;;;;;;;3.75;1.70;;;20.70;75.00;;;;;;5094133;28;20054;-71
2022/07/18 06:54:20;;;;;;;6.10;2.72;;;20.80;74.20;;;;;;5094101;28;20043;-71
2022/07/18 06:56:46;;;;;;;5.18;2.25;;;20.80;73.90;;;;;;5094097;28;20048;-71
2022/07/18 06:59:12;;;;;;;6.22;2.15;;;20.90;73.70;;;;;;5094050;28;20036;-71
2022/07/18 07:01:37;;;;;;;4.80;2.10;;;21.00;73.10;;;;;;5094008;28;20028;-71
2022/07/18 07:04:03;;;;;;;6.32;1.90;;;21.00;73.00;;;;;;5094062;28;20365;-71
2022/07/18 07:06:29;;;;;;;4.78;2.33;;;21.10;73.10;;;;;;5093646;28;20529;-72
2022/07/18 07:08:55;;;;;;;4.20;1.77;;;21.10;72.70;;;;;;5093794;28;20032;-72
2022/07/18 07:11:21;;;;;;;4.40;2.00;;;21.10;72.40;;;;;;5093830;28;20038;-71
2022/07/18 07:13:48;;;;;;;4.78;1.67;;;21.20;72.10;;;;;;5093807;28;20024;-71
2022/07/18 07:16:14;;;;;;;3.72;1.42;;;21.30;71.90;;;;;;5093581;28;20039;-71
2022/07/18 07:18:40;;;;;;;4.22;1.60;;;21.30;71.40;;;;;;5092811;28;20032;-72
2022/07/18 07:21:08;;;;;;;4.07;1.30;;;21.30;71.60;;;;;;5093958;28;20396;-71
2022/07/18 07:23:34;;;;;;;3.28;1.40;;;21.40;71.10;;;;;;5093715;28;20546;-71
2022/07/18 07:26:00;;;;;;;5.22;1.15;;;21.50;70.60;;;;;;5093473;28;20032;-72
2022/07/18 07:28:26;;;;;;;1.92;0.88;;;21.50;70.50;;;;;;5093477;28;20020;-71
2022/07/18 07:30:52;;;;;;;3.33;1.30;;;21.60;70.40;;;;;;5093152;28;20535;-72
2022/07/18 07:33:18;;;;;;;5.57;1.27;;;21.60;70.60;;;;;;5093347;28;20056;-71
2022/07/18 07:35:44;;;;;;;2.58;1.40;;;21.60;70.60;;;;;;5093292;28;20490;-71
2022/07/18 07:38:17;;;;;;;3.50;1.42;;;21.60;70.50;;;;;;5093283;28;20028;-72
2022/07/18 07:40:43;;;;;;;2.90;1.10;;;21.60;70.60;;;;;;5093177;28;20042;-71
2022/07/18 07:43:15;;;;;;;3.80;1.10;;;21.70;71.30;;;;;;5093273;28;20523;-71
2022/07/18 07:45:42;;;;;;;3.78;1.45;;;21.60;71.40;;;;;;5093301;28;20032;-71
2022/07/18 07:48:08;;;;;;;2.78;1.10;;;21.60;72.90;;;;;;5093113;28;20480;-71
2022/07/18 07:50:34;;;;;;;3.08;1.17;;;21.60;72.40;;;;;;5093024;28;20031;-71
2022/07/18 07:53:00;;;;;;;2.40;1.05;;;21.50;72.40;;;;;;5093046;28;20396;-71
2022/07/18 07:55:28;;;;;;;3.80;1.55;;;21.60;72.60;;;;;;5093035;28;20107;-72
2022/07/18 07:57:54;;;;;;;3.20;1.45;;;21.50;72.50;;;;;;5091952;28;20035;-71
2022/07/18 08:00:20;;;;;;;5.13;1.40;;;21.60;72.10;;;;;;5092920;28;20020;-71
2022/07/18 08:02:52;;;;;;;2.03;1.10;;;21.70;72.00;;;;;;5091863;28;20027;-71
2022/07/18 08:05:18;;;;;;;3.25;1.20;;;21.70;71.70;;;;;;5091425;28;20391;-71
2022/07/18 08:07:44;;;;;;;3.80;1.40;;;21.80;71.40;;;;;;5092754;28;20039;-71
2022/07/18 08:10:10;;;;;;;4.30;1.30;;;21.90;70.80;;;;;;5092530;28;20028;-71
2022/07/18 08:12:36;;;;;;;6.63;1.50;;;21.90;70.60;;;;;;5093174;28;20471;-71
2022/07/18 08:15:02;;;;;;;2.78;1.10;;;22.00;71.00;;;;;;5092850;28;20046;-72
2022/07/18 08:17:28;;;;;;;3.42;1.55;;;22.00;71.30;;;;;;5092544;28;20032;-71
2022/07/18 08:19:54;;;;;;;2.38;1.10;;;21.90;72.00;;;;;;5091095;28;20024;-71
2022/07/18 08:22:20;;;;;;;3.50;1.48;;;21.90;72.10;;;;;;5092428;28;20105;-71
2022/07/18 08:24:46;;;;;;;6.30;1.70;;;21.90;72.30;;;;;;5092579;28;20036;-71
2022/07/18 08:27:13;;;;;;;3.17;1.20;;;21.80;72.80;;;;;;5092336;28;20036;-71
2022/07/18 08:29:39;;;;;;;3.15;1.20;;;21.80;72.80;;;;;;5092013;28;20034;-71
2022/07/18 08:32:05;;;;;;;2.72;1.05;;;21.80;73.20;;;;;;5092265;28;20063;-71
2022/07/18 08:34:31;;;;;;;4.60;1.40;;;21.80;73.20;;;;;;5092490;28;20093;-71
2022/07/18 08:36:57;;;;;;;2.08;1.25;;;21.70;73.10;;;;;;5073827;28;20489;-71
2022/07/18 08:39:23;;;;;;;3.78;1.40;;;21.70;73.30;;;;;;5091823;28;20024;-71
2022/07/18 08:41:51;;;;;;;1.95;1.08;;;21.70;73.70;;;;;;5092181;28;20098;-71
2022/07/18 08:44:17;;;;;;;2.97;1.10;;;21.70;73.60;;;;;;5091971;28;20107;-71
2022/07/18 08:46:51;;;;;;;2.13;1.05;;;21.70;73.70;;;;;;5091906;28;20280;-72
2022/07/18 08:49:18;;;;;;;4.78;1.15;;;21.80;72.70;;;;;;5090654;28;20028;-72
2022/07/18 08:51:44;;;;;;;5.03;1.42;;;21.80;72.50;;;;;;5091797;28;20032;-72
2022/07/18 08:54:10;;;;;;;3.95;1.40;;;22.00;71.80;;;;;;5092061;28;20040;-72
2022/07/18 08:56:36;;;;;;;3.47;1.40;;;22.10;71.70;;;;;;5091760;28;20110;-72
2022/07/18 08:59:03;;;;;;;5.35;1.30;;;22.10;72.20;;;;;;5091553;28;20377;-71
2022/07/18 09:01:30;;;;;;;4.82;1.13;;;22.10;72.30;;;;;;5091830;28;20084;-72
2022/07/18 09:04:14;;;;;;;2.58;1.30;;;22.10;71.50;;;;;;5091779;28;20062;-72
2022/07/18 09:06:49;;;;;;;4.85;1.30;;;22.20;71.50;;;;;;5091196;28;20484;-72
2022/07/18 09:09:17;;;;;;;2.97;1.38;;;22.30;71.50;;;;;;5091516;28;20032;-72
2022/07/18 09:11:55;;;;;;;3.47;1.40;;;22.40;71.00;;;;;;5091583;28;20081;-72
2022/07/18 09:14:42;;;;;;;6.97;1.70;;;22.40;72.00;;;;;;5091572;28;20043;-72
2022/07/18 09:17:10;;;;;;;6.47;1.80;;;22.30;72.20;;;;;;5091316;28;20074;-72
2022/07/18 09:19:38;;;;;;;3.10;1.13;;;22.30;71.10;;;;;;5091388;28;20048;-71
2022/07/18 09:22:22;;;;;;;4.28;1.30;;;22.40;72.60;;;;;;5091582;28;20464;-71
2022/07/18 09:25:02;;;;;;;3.42;1.30;;;22.30;71.70;;;;;;5091908;28;20455;-72
2022/07/18 09:27:47;;;;;;;4.28;1.30;;;22.20;72.90;;;;;;5090988;28;20039;-72
2022/07/18 09:30:20;;;;;;;4.35;1.23;;;22.20;72.10;;;;;;5091108;28;20035;-72
2022/07/18 09:33:04;;;;;;;2.38;1.33;;;22.30;71.00;;;;;;5089849;28;20028;-71
2022/07/18 09:35:33;;;;;;;4.00;1.33;;;22.30;71.70;;;;;;5091274;28;20034;-72
2022/07/18 09:38:04;;;;;;;;;;;22.40;72.50;;;;;;5091506;28;20020;-72
2022/07/18 09:40:35;;;;;;;3.35;1.50;;;22.40;71.30;;;;;;5091017;28;20340;-72
2022/07/18 09:43:06;;;;;;;8.07;1.88;;;22.40;70.80;;;;;;5090740;28;20043;-72
2022/07/18 09:45:38;;;;;;;2.20;1.30;;;22.40;71.30;;;;;;5089973;28;20056;-72
2022/07/18 09:48:07;;;;;;;3.33;1.50;;;22.50;70.70;;;;;;5091038;28;20508;-72
2022/07/18 09:50:38;;;;;;;3.38;1.50;;;22.60;69.70;;;;;;5090953;28;20081;-72
2022/07/18 09:53:04;;;;;;;3.75;1.80;;;22.80;69.60;;;;;;5091301;28;20537;-72
2022/07/18 09:55:30;;;;;;;4.07;1.60;;;22.80;68.70;;;;;;5089699;28;20032;-72
2022/07/18 09:58:04;;;;;;;5.43;2.05;;;22.90;67.90;;;;;;5090849;28;20115;-72
2022/07/18 10:00:33;;;;;;;6.07;1.60;;;23.00;67.70;;;;;;5090860;28;20024;-72
2022/07/18 10:03:00;;;;;;;6.70;2.70;;;23.10;67.10;;;;;;5090955;28;20115;-72
2022/07/18 10:05:31;;;;;;;6.22;2.28;;;23.20;66.00;;;;;;5090738;28;20032;-72
2022/07/18 10:07:59;;;;;;;7.18;2.22;;;23.40;64.30;;;;;;5090849;28;20035;-72
2022/07/18 10:10:30;;;;;;;7.03;2.17;;;23.60;63.00;;;;;;5090771;28;20111;-72
2022/07/18 10:12:58;;;;;;;4.68;2.00;;;23.80;62.80;;;;;;5090885;28;20111;-72
2022/07/18 10:15:28;;;;;;;5.43;1.95;;;23.90;62.70;;;;;;5090874;28;20021;-72
2022/07/18 10:17:56;;;;;;;7.18;2.20;;;24.00;63.00;;;;;;5090929;28;20028;-72
2022/07/18 10:20:32;;;;;;;4.60;1.70;;;24.10;61.90;;;;;;5090511;28;20028;-72
2022/07/18 10:23:02;;;;;;;8.60;2.10;;;24.30;61.20;;;;;;5090914;28;20040;-72
2022/07/18 10:25:28;;;;;;;5.80;2.30;;;24.40;60.00;;;;;;5091191;28;20024;-72
2022/07/18 10:28:05;;;;;;;4.88;2.40;;;24.50;59.40;;;;;;5090430;28;20039;-72
2022/07/18 10:30:37;;;;;;;7.95;2.10;;;24.50;59.50;;;;;;5090522;28;20555;-72
2022/07/18 10:33:04;;;;;;;7.18;2.15;;;24.70;59.50;;;;;;5090704;28;20024;-72
2022/07/18 10:36:00;;;;;;;7.15;2.30;;;24.70;59.40;;;;;;5090705;28;20039;-72
2022/07/18 10:38:26;;;;;;;8.10;2.67;;;24.80;59.00;;;;;;5090417;28;20081;-72
2022/07/18 10:41:07;;;;;;;10.07;2.65;;;24.80;58.70;;;;;;5090506;28;20020;-72
2022/07/18 10:43:38;;;;;;;5.32;2.20;;;24.80;58.30;;;;;;5090800;28;20052;-72
2022/07/18 10:46:06;;;;;;;3.92;2.05;;;24.90;58.00;;;;;;5090490;28;20035;-71
2022/07/18 10:48:35;;;;;;;9.98;2.60;;;24.80;58.80;;;;;;5090357;28;20028;-72
2022/07/18 10:51:05;;;;;;;8.07;2.70;;;24.80;59.40;;;;;;5090390;28;20031;-72
2022/07/18 10:53:53;;;;;;;5.50;2.50;;;24.90;59.10;;;;;;5090717;28;20118;-72
2022/07/18 10:56:39;;;;;;;7.68;2.65;;;25.10;59.00;;;;;;5094014;28;20024;-72
2022/07/18 10:59:20;;;;;;;6.15;2.63;;;25.20;59.20;;;;;;5083076;28;20447;-72
2022/07/18 11:01:55;;;;;;;5.93;1.80;;;25.30;58.80;;;;;;5093885;28;20043;-72
2022/07/18 11:04:30;;;;;;;5.90;1.63;;;25.30;58.70;;;;;;5094082;28;20366;-72
2022/07/18 11:07:13;;;;;;;4.75;1.88;;;25.30;58.70;;;;;;5093954;28;20028;-72
2022/07/18 11:09:47;;;;;;;4.68;2.20;;;25.50;58.60;;;;;;5093632;28;20488;-72
2022/07/18 11:12:29;;;;;;;5.28;2.40;;;25.50;58.50;;;;;;5092860;28;20039;-72
2022/07/18 11:15:04;;;;;;;6.00;2.40;;;25.50;58.60;;;;;;5093749;28;20560;-72
2022/07/18 11:17:58;;;;;;;6.65;2.50;;;25.60;58.30;;;;;;5093659;28;20161;-72
2022/07/18 11:20:33;;;;;;;9.18;2.88;;;25.50;58.60;;;;;;5093399;28;20121;-72
2022/07/18 11:23:00;;;;;;;7.47;2.33;;;25.50;58.60;;;;;;5093647;28;20536;-72
2022/07/18 11:25:27;;;;;;;6.22;2.17;;;25.50;58.70;;;;;;5093569;28;20036;-72
2022/07/18 11:27:54;;;;;;;5.30;2.15;;;25.50;59.30;;;;;;5093365;28;20095;-72
2022/07/18 11:30:22;;;;;;;6.05;1.75;;;25.60;58.30;;;;;;5093719;28;20054;-72
2022/07/18 11:32:49;;;;;;;4.93;1.95;;;25.80;57.80;;;;;;5093282;28;20115;-71
2022/07/18 11:35:20;;;;;;;5.85;2.35;;;25.90;58.00;;;;;;5093585;28;20024;-72
2022/07/18 11:37:50;;;;;;;5.45;2.00;;;26.20;57.40;;;;;;5093266;28;20034;-72
2022/07/18 11:40:17;;;;;;;7.57;2.50;;;26.30;57.60;;;;;;5093250;28;20023;-72
2022/07/18 11:42:43;;;;;;;4.50;2.08;;;26.40;57.20;;;;;;5093280;28;20032;-72
2022/07/18 11:45:15;;;;;;;6.60;2.20;;;26.50;57.30;;;;;;5093337;28;20119;-72
2022/07/18 11:47:52;;;;;;;4.93;2.47;;;26.50;57.20;;;;;;5091953;28;20056;-73
2022/07/18 11:50:33;;;;;;;5.25;2.22;;;26.40;56.90;;;;;;5093026;28;20120;-72
2022/07/18 11:52:59;;;;;;;6.28;2.20;;;26.30;57.10;;;;;;5093031;28;20032;-72
2022/07/18 11:55:38;;;;;;;5.03;2.20;;;26.30;57.50;;;;;;5093075;28;20028;-71
2022/07/18 11:58:08;;;;;;;6.97;2.25;;;26.30;57.40;;;;;;5093054;28;20544;-72
2022/07/18 12:00:34;;;;;;;7.20;2.10;;;26.30;56.70;;;;;;5093020;28;20032;-72
2022/07/18 12:03:01;;;;;;;5.05;1.90;;;26.40;56.60;;;;;;5091782;28;20106;-72
2022/07/18 12:05:34;;;;;;;5.05;2.03;;;26.50;56.50;;;;;;5092465;28;20495;-73
2022/07/18 12:08:00;;;;;;;7.95;2.10;;;26.50;56.70;;;;;;5092685;28;20055;-72
2022/07/18 12:10:26;;;;;;;6.03;2.42;;;26.50;56.10;;;;;;5092661;28;20024;-72
2022/07/18 12:12:54;;;;;;;5.43;2.40;;;26.60;56.30;;;;;;5092728;28;20369;-72
2022/07/18 12:15:20;;;;;;;5.75;2.38;;;26.70;56.40;;;;;;5092744;28;20047;-72
2022/07/18 12:17:50;;;;;;;6.88;2.70;;;26.70;55.40;;;;;;5092619;28;20232;-73
2022/07/18 12:20:21;;;;;;;6.35;2.85;;;26.60;56.10;;;;;;5092246;28;20036;-72
2022/07/18 12:23:12;;;;;;;9.65;4.68;;;26.50;56.00;;;;;;5092481;28;20082;-73
2022/07/18 12:25:57;;;;;;;9.23;3.92;;;26.50;55.90;;;;;;5092317;28;20028;-72
2022/07/18 12:28:25;;;;;;;6.15;2.90;;;26.70;56.10;;;;;;5092426;28;20103;-72
2022/07/18 12:30:51;;;;;;;7.00;3.13;;;26.70;56.30;;;;;;5092077;28;20069;-72
2022/07/18 12:33:17;;;;;;;9.07;2.80;;;26.70;56.60;;;;;;5092260;28;20032;-72
2022/07/18 12:35:44;;;;;;;7.72;2.90;;;26.70;56.10;;;;;;5092288;28;20031;-72
2022/07/18 12:38:13;;;;;;;5.05;2.50;;;26.70;56.40;;;;;;5092109;28;20024;-72
2022/07/18 12:41:01;;;;;;;6.97;2.70;;;26.90;56.30;;;;;;5092012;28;20035;-72
2022/07/18 12:43:31;;;;;;;6.03;2.38;;;27.00;56.40;;;;;;5090853;28;20070;-72
2022/07/18 12:45:59;;;;;;;4.80;2.10;;;27.10;56.00;;;;;;5092099;28;20104;-72
2022/07/18 12:48:29;;;;;;;;;;;27.30;55.80;;;;;;5092355;28;20028;-72
2022/07/18 12:50:56;;;;;;;5.07;2.20;;;27.40;55.90;;;;;;5091980;28;19916;-73
2022/07/18 12:53:22;;;;;;;4.75;2.00;;;27.50;56.80;;;;;;5090654;28;20032;-72
2022/07/18 12:55:48;;;;;;;3.70;1.75;;;27.40;56.70;;;;;;5091831;28;20023;-71
2022/07/18 12:58:14;;;;;;;4.93;2.20;;;27.40;56.40;;;;;;5091803;28;20121;-72